| time (UTC) | temp F | wind direction | speed MPH | gust MPH | rain 1hr in | rain 24hr in | rain mn in | humidity % | barometer mb |
| 20260904154534 | 70 | 267 | 10.0 | 18.0 | 0.00 | 0.12 | 0.02 | 82 | |
| 20260904153539 | 70 | 288 | 14.0 | 20.0 | 0.00 | 0.12 | 0.02 | 81 | |
| 20260904152532 | 70 | 257 | 12.0 | 21.0 | 0.00 | 0.12 | 0.02 | 80 | |
| 20260904151537 | 71 | 271 | 15.0 | 21.0 | 0.00 | 0.12 | 0.02 | 79 | |
| 20260904150529 | 70 | 274 | 15.0 | 23.0 | 0.00 | 0.12 | 0.02 | 80 | |
| 20260904145550 | 70 | 272 | 13.0 | 21.0 | 0.00 | 0.12 | 0.02 | 79 | |
| 20260904144522 | 70 | 360 | 19.0 | 24.0 | 0.00 | 0.12 | 0.02 | 80 | |
| 20260904143525 | 70 | 273 | 12.0 | 21.0 | 0.00 | 0.12 | 0.02 | 83 | |
| 20260904142519 | 69 | 282 | 13.0 | 22.0 | 0.00 | 0.12 | 0.02 | 84 | |
| 20260904141553 | 69 | 278 | 15.0 | 22.0 | 0.00 | 0.12 | 0.02 | 84 | |
| 20260904140606 | 69 | 273 | 13.0 | 19.0 | 0.00 | 0.12 | 0.02 | 86 | |
| 20260904135524 | 68 | 268 | 11.0 | 18.0 | 0.00 | 0.12 | 0.02 | 87 | |
| 20260904134528 | 69 | 290 | 16.0 | 24.0 | 0.00 | 0.12 | 0.02 | 87 | |
| 20260904133521 | 69 | 277 | 11.0 | 19.0 | 0.04 | 0.12 | 0.02 | 87 | |
| 20260904132525 | 68 | 263 | 11.0 | 24.0 | 0.12 | 0.12 | 0.02 | 87 | |
| 20260904131538 | 68 | 251 | 11.0 | 21.0 | 0.12 | 0.12 | 0.02 | 89 | |
| 20260904130543 | 67 | 259 | 18.0 | 23.0 | 0.12 | 0.12 | 0.02 | 89 | |
| 20260904125536 | 67 | 285 | 16.0 | 26.0 | 0.12 | 0.12 | 0.02 | 89 | |
| 20260904124544 | 68 | 259 | 18.0 | 30.0 | 0.12 | 0.12 | 0.02 | 88 | |
| 20260904123528 | 70 | 280 | 24.0 | 32.0 | 0.04 | 0.04 | 0.01 | 86 | |
| 20260904122601 | 71 | 267 | 13.0 | 26.0 | 0.00 | 0.00 | 0.00 | 86 | |
| 20260904121523 | 71 | 248 | 17.0 | 29.0 | 0.00 | 0.00 | 0.00 | 86 | |
| 20260904120536 | 71 | 360 | 18.0 | 25.0 | 0.00 | 0.00 | 0.00 | 85 | |
| 20260904115539 | 70 | 254 | 20.0 | 29.0 | 0.00 | 0.00 | 0.00 | 86 | |
| 20260904114532 | 70 | 246 | 20.0 | 28.0 | 0.00 | 0.00 | 0.00 | 86 | |
| 20260904113552 | 71 | 263 | 26.0 | 35.0 | 0.00 | 0.00 | 0.00 | 83 | |
| 20260904112545 | 71 | 238 | 19.0 | 35.0 | 0.00 | 0.00 | 0.00 | 84 | |
| 20260904111538 | 72 | 225 | 22.0 | 28.0 | 0.00 | 0.00 | 0.00 | 82 | |
| 20260904110522 | 73 | 262 | 19.0 | 29.0 | 0.00 | 0.00 | 0.00 | 81 | |
| 20260904105534 | 73 | 268 | 18.0 | 33.0 | 0.00 | 0.12 | 0.00 | 81 | |
| 20260904104539 | 73 | 257 | 20.0 | 32.0 | 0.00 | 0.12 | 0.00 | 82 | |
| 20260904103523 | 72 | 269 | 15.0 | 29.0 | 0.00 | 0.12 | 0.00 | 83 | |
| 20260904102537 | 72 | 253 | 23.0 | 33.0 | 0.00 | 0.12 | 0.00 | 82 | |
| 20260904101546 | 72 | 261 | 21.0 | 35.0 | 0.00 | 0.12 | 0.00 | 82 | |
| 20260904100530 | 72 | 217 | 18.0 | 30.0 | 0.00 | 0.12 | 0.00 | 84 | |
| 20260904095533 | 72 | 263 | 17.0 | 31.0 | 0.00 | 0.12 | 0.00 | 83 | |
| 20260904094527 | 72 | 240 | 22.0 | 36.0 | 0.00 | 0.12 | 0.00 | 84 | |
| 20260904093531 | 72 | 240 | 19.0 | 28.0 | 0.00 | 0.12 | 0.00 | 85 | |
| 20260904092524 | 71 | 247 | 21.0 | 28.0 | 0.00 | 0.12 | 0.00 | 86 | |
| 20260904091529 | 71 | 247 | 15.0 | 26.0 | 0.00 | 0.12 | 0.00 | 86 | |
| 20260904090541 | 70 | 254 | 22.0 | 28.0 | 0.00 | 0.12 | 0.00 | 87 | |
| 20260904085522 | 70 | 262 | 18.0 | 25.0 | 0.00 | 0.12 | 0.00 | 88 | |
| 20260904084536 | 70 | 204 | 20.0 | 27.0 | 0.00 | 0.12 | 0.00 | 88 | |
| 20260904083539 | 70 | 229 | 16.0 | 26.0 | 0.00 | 0.12 | 0.00 | 89 | |
| 20260904082523 | 69 | 251 | 17.0 | 29.0 | 0.00 | 0.12 | 0.00 | 90 | |
| 20260904081537 | 69 | 270 | 14.0 | 23.0 | 0.00 | 0.12 | 0.00 | 90 | |
| 20260904080551 | 69 | 210 | 15.0 | 23.0 | 0.00 | 0.12 | 0.00 | 90 | |
| 20260904075534 | 69 | 252 | 14.0 | 22.0 | 0.00 | 0.12 | 0.00 | 89 | |
| 20260904074527 | 69 | 257 | 15.0 | 26.0 | 0.00 | 0.12 | 0.00 | 88 | |
| 20260904073546 | 69 | 257 | 16.0 | 23.0 | 0.00 | 0.12 | 0.00 | 88 | |
| 20260904072540 | 69 | 360 | 15.0 | 21.0 | 0.00 | 0.12 | 0.00 | 88 | |
| 20260904071553 | 69 | 229 | 14.0 | 25.0 | 0.00 | 0.12 | 0.00 | 88 | |
| 20260904070535 | 69 | 254 | 14.0 | 21.0 | 0.00 | 0.12 | 0.00 | 88 | |
| 20260904065527 | 69 | 209 | 14.0 | 23.0 | 0.00 | 0.12 | 0.00 | 89 | |
| 20260904064532 | 69 | 254 | 13.0 | 27.0 | 0.00 | 0.12 | 0.00 | 88 | |
| 20260904063543 | 69 | 227 | 18.0 | 25.0 | 0.00 | 0.12 | 0.00 | 88 | |
| 20260904062524 | 69 | 218 | 17.0 | 27.0 | 0.00 | 0.12 | 0.00 | 88 | |
| 20260904061558 | 69 | 244 | 12.0 | 20.0 | 0.00 | 0.12 | 0.00 | 89 | |
| 20260904060521 | 68 | 254 | 12.0 | 20.0 | 0.00 | 0.12 | 0.00 | 89 | |
| 20260904055535 | 68 | 213 | 14.0 | 22.0 | 0.00 | 0.12 | 0.00 | 89 | |
| 20260904054539 | 68 | 215 | 12.0 | 23.0 | 0.00 | 0.12 | 0.00 | 89 | |
| 20260904053532 | 68 | 225 | 16.0 | 22.0 | 0.00 | 0.12 | 0.00 | 89 | |
| 20260904052537 | 69 | 251 | 11.0 | 23.0 | 0.00 | 0.12 | 0.00 | 89 | |
| 20260904051547 | 68 | 360 | 15.0 | 22.0 | 0.00 | 0.12 | 0.00 | 89 | |
| 20260904050559 | 68 | 206 | 14.0 | 24.0 | 0.00 | 0.12 | 0.00 | 89 | |
| 20260904045521 | 68 | 205 | 12.0 | 19.0 | 0.00 | 0.12 | 0.00 | 89 | |
| 20260904044535 | 68 | 209 | 13.0 | 21.0 | 0.00 | 0.12 | 0.00 | 89 | |
| 20260904043539 | 68 | 240 | 12.0 | 21.0 | 0.00 | 0.12 | 0.00 | 89 | |
| 20260904042532 | 68 | 225 | 16.0 | 22.0 | 0.00 | 0.12 | 0.00 | 88 | |
| 20260904041537 | 68 | 232 | 14.0 | 21.0 | 0.00 | 0.12 | 0.00 | 88 | |
| 20260904040547 | 68 | 252 | 12.0 | 20.0 | 0.00 | 0.12 | 0.00 | 88 | |
| 20260904035530 | 68 | 230 | 13.0 | 21.0 | 0.00 | 0.12 | 0.00 | 88 | |
| 20260904034545 | 68 | 360 | 12.0 | 22.0 | 0.00 | 0.12 | 0.00 | 88 | |
| 20260904033528 | 68 | 225 | 13.0 | 24.0 | 0.00 | 0.12 | 0.00 | 88 | |
| 20260904032602 | 68 | 202 | 12.0 | 18.0 | 0.00 | 0.12 | 0.00 | 88 | |
| 20260904031524 | 68 | 214 | 13.0 | 21.0 | 0.00 | 0.12 | 0.00 | 88 | |
| 20260904030538 | 68 | 203 | 15.0 | 21.0 | 0.00 | 0.12 | 0.00 | 89 | |
| 20260904025522 | 68 | 215 | 14.0 | 23.0 | 0.00 | 0.12 | 0.00 | 89 | |
| 20260904024523 | 68 | 221 | 14.0 | 23.0 | 0.00 | 0.12 | 0.00 | 89 | |
| 20260904023536 | 68 | 197 | 16.0 | 25.0 | 0.00 | 0.12 | 0.00 | 89 | |
| 20260904022521 | 67 | 231 | 15.0 | 21.0 | 0.00 | 0.12 | 0.00 | 89 | |
| 20260904021535 | 67 | 213 | 15.0 | 24.0 | 0.00 | 0.12 | 0.00 | 89 | |
| 20260904020547 | 67 | 217 | 15.0 | 21.0 | 0.00 | 0.12 | 0.00 | 89 | |
| 20260904015531 | 67 | 223 | 13.0 | 20.0 | 0.00 | 0.12 | 0.00 | 89 | |
| 20260904014537 | 67 | 229 | 12.0 | 16.0 | 0.00 | 0.12 | 0.00 | 88 | |
| 20260904013528 | 68 | 239 | 12.0 | 21.0 | 0.00 | 0.12 | 0.00 | 88 | |
| 20260904012530 | 68 | 220 | 14.0 | 22.0 | 0.00 | 0.12 | 0.00 | 88 | |
| 20260904011543 | 68 | 234 | 17.0 | 25.0 | 0.00 | 0.12 | 0.00 | 88 | |
| 20260904010527 | 68 | 244 | 11.0 | 23.0 | 0.00 | 0.12 | 0.00 | 88 | |
| 20260904005520 | 69 | 244 | 14.0 | 22.0 | 0.00 | 0.12 | 0.00 | 87 | |
| 20260904004525 | 69 | 252 | 15.0 | 27.0 | 0.00 | 0.12 | 0.00 | 87 | |
| 20260904003538 | 69 | 277 | 16.0 | 24.0 | 0.00 | 0.12 | 0.00 | 87 | |
| 20260904002523 | 69 | 269 | 14.0 | 23.0 | 0.00 | 0.12 | 0.00 | 87 | |
| 20260904001532 | 69 | 238 | 14.0 | 22.0 | 0.00 | 0.12 | 0.00 | 87 | |
| 20260904000537 | 69 | 228 | 17.0 | 24.0 | 0.00 | 0.12 | 0.00 | 88 | |
| 20260903235550 | 69 | 244 | 12.0 | 21.0 | 0.00 | 0.12 | 0.00 | 88 | |
| 20260903234542 | 69 | 239 | 14.0 | 23.0 | 0.00 | 0.12 | 0.00 | 88 | |
| 20260903233526 | 69 | 269 | 13.0 | 20.0 | 0.00 | 0.12 | 0.00 | 89 | |
| 20260903232559 | 69 | 255 | 13.0 | 19.0 | 0.00 | 0.12 | 0.00 | 89 | |
| 20260903231522 | 69 | 250 | 11.0 | 20.0 | 0.00 | 0.12 | 0.00 | 89 | |
| 20260903230531 | 69 | 216 | 13.0 | 22.0 | 0.00 | 0.12 | 0.00 | 89 | |
| 20260903225536 | 69 | 227 | 12.0 | 19.0 | 0.00 | 0.12 | 0.00 | 88 | |
| 20260903224549 | 69 | 227 | 16.0 | 22.0 | 0.00 | 0.12 | 0.00 | 88 | |
| 20260903223532 | 69 | 270 | 12.0 | 20.0 | 0.00 | 0.12 | 0.00 | 88 | |
| 20260903222545 | 69 | 241 | 13.0 | 21.0 | 0.00 | 0.12 | 0.00 | 88 | |
| 20260903221528 | 69 | 246 | 14.0 | 22.0 | 0.00 | 0.12 | 0.00 | 88 | |
| 20260903220531 | 69 | 271 | 14.0 | 21.0 | 0.00 | 0.12 | 0.00 | 88 | |
| 20260903215523 | 69 | 252 | 13.0 | 21.0 | 0.00 | 0.12 | 0.02 | 88 | |
| 20260903214524 | 69 | 231 | 16.0 | 26.0 | 0.00 | 0.12 | 0.02 | 88 | |
| 20260903213558 | 69 | 217 | 13.0 | 19.0 | 0.00 | 0.12 | 0.02 | 88 | |
| 20260903212521 | 69 | 259 | 14.0 | 21.0 | 0.00 | 0.12 | 0.02 | 88 | |
| 20260903211555 | 69 | 220 | 16.0 | 23.0 | 0.00 | 0.12 | 0.02 | 88 | |
| 20260903210527 | 69 | 249 | 17.0 | 26.0 | 0.00 | 0.12 | 0.02 | 88 | |
| 20260903205531 | 69 | 255 | 15.0 | 22.0 | 0.00 | 0.12 | 0.02 | 88 | |
| 20260903204524 | 69 | 238 | 12.0 | 21.0 | 0.00 | 0.12 | 0.02 | 88 | |
| 20260903203525 | 69 | 261 | 12.0 | 22.0 | 0.00 | 0.12 | 0.02 | 88 | |
| 20260903202538 | 69 | 273 | 13.0 | 20.0 | 0.00 | 0.12 | 0.02 | 88 | |
| 20260903201522 | 69 | 250 | 12.0 | 21.0 | 0.00 | 0.12 | 0.02 | 88 | |
| 20260903200535 | 69 | 254 | 15.0 | 21.0 | 0.00 | 0.12 | 0.02 | 88 | |
| 20260903195539 | 69 | 243 | 15.0 | 23.0 | 0.00 | 0.12 | 0.02 | 88 | |
| 20260903194553 | 69 | 248 | 14.0 | 24.0 | 0.00 | 0.12 | 0.02 | 88 | |
| 20260903193536 | 69 | 228 | 14.0 | 22.0 | 0.00 | 0.12 | 0.02 | 87 | |
| 20260903192528 | 69 | 222 | 12.0 | 23.0 | 0.00 | 0.12 | 0.02 | 87 | |
| 20260903191559 | 70 | 240 | 12.0 | 22.0 | 0.00 | 0.12 | 0.02 | 87 | |
| 20260903190521 | 70 | 184 | 14.0 | 22.0 | 0.00 | 0.12 | 0.02 | 87 | |
| 20260903185525 | 70 | 259 | 15.0 | 21.0 | 0.00 | 0.12 | 0.02 | 87 | |
| 20260903184539 | 70 | 236 | 12.0 | 25.0 | 0.00 | 0.12 | 0.02 | 87 | |
| 20260903183523 | 70 | 232 | 11.0 | 19.0 | 0.00 | 0.12 | 0.02 | 87 | |
| 20260903182536 | 70 | 236 | 11.0 | 18.0 | 0.00 | 0.12 | 0.02 | 87 | |
| 20260903181549 | 70 | 235 | 13.0 | 20.0 | 0.00 | 0.12 | 0.02 | 86 | |
| 20260903180528 | 70 | 249 | 14.0 | 19.0 | 0.00 | 0.12 | 0.02 | 86 | |
| 20260903175540 | 70 | 259 | 11.0 | 23.0 | 0.00 | 0.12 | 0.02 | 86 | |
| 20260903174543 | 70 | 254 | 14.0 | 26.0 | 0.00 | 0.12 | 0.02 | 86 | |
| 20260903173556 | 71 | 257 | 15.0 | 24.0 | 0.00 | 0.12 | 0.02 | 86 | |
| 20260903172527 | 71 | 229 | 14.0 | 20.0 | 0.00 | 0.12 | 0.02 | 86 | |
| 20260903171531 | 71 | 246 | 13.0 | 24.0 | 0.00 | 0.12 | 0.02 | 85 | |
| 20260903170540 | 71 | 360 | 17.0 | 23.0 | 0.00 | 0.12 | 0.02 | 85 | |
| 20260903165523 | 71 | 360 | 13.0 | 21.0 | 0.00 | 0.12 | 0.02 | 84 | |
| 20260903164538 | 71 | 286 | 16.0 | 22.0 | 0.00 | 0.12 | 0.02 | 84 | |
| 20260903163520 | 71 | 262 | 11.0 | 21.0 | 0.00 | 0.12 | 0.02 | 84 | |
| 20260903162524 | 72 | 250 | 9.0 | 20.0 | 0.00 | 0.12 | 0.02 | 84 | |
| 20260903161538 | 72 | 263 | 16.0 | 23.0 | 0.00 | 0.12 | 0.02 | 83 | |
| 20260903160522 | 73 | 254 | 14.0 | 27.0 | 0.00 | 0.12 | 0.02 | 82 | |
| 20260903155535 | 73 | 266 | 14.0 | 25.0 | 0.00 | 0.12 | 0.02 | 81 |